sensor_id;sensor_type;location;lat;lon;timestamp;pressure;altitude;pressure_sealevel;temperature
76541;BMP280;65385;55.772;37.658;2023-07-08T00:00:11;99609.66;;;20.30
76541;BMP280;65385;55.772;37.658;2023-07-08T00:01:14;99617.94;;;20.28
76541;BMP280;65385;55.772;37.658;2023-07-08T00:02:16;99608.44;;;20.27
76541;BMP280;65385;55.772;37.658;2023-07-08T00:03:17;99617.06;;;20.24
76541;BMP280;65385;55.772;37.658;2023-07-08T00:04:18;99614.84;;;20.26
76541;BMP280;65385;55.772;37.658;2023-07-08T00:05:21;99615.97;;;20.25
76541;BMP280;65385;55.772;37.658;2023-07-08T00:06:26;99609.88;;;20.25
76541;BMP280;65385;55.772;37.658;2023-07-08T00:07:27;99601.75;;;20.21
76541;BMP280;65385;55.772;37.658;2023-07-08T00:08:28;99607.75;;;20.18
76541;BMP280;65385;55.772;37.658;2023-07-08T00:09:28;99609.66;;;20.18
76541;BMP280;65385;55.772;37.658;2023-07-08T00:10:31;99612.72;;;20.20
76541;BMP280;65385;55.772;37.658;2023-07-08T00:11:31;99610.84;;;20.20
76541;BMP280;65385;55.772;37.658;2023-07-08T00:12:32;99599.97;;;20.13
76541;BMP280;65385;55.772;37.658;2023-07-08T00:13:32;99608.06;;;20.17
76541;BMP280;65385;55.772;37.658;2023-07-08T00:14:33;99608.41;;;20.15
76541;BMP280;65385;55.772;37.658;2023-07-08T00:15:34;99605.28;;;20.13
76541;BMP280;65385;55.772;37.658;2023-07-08T00:16:35;99609.03;;;20.12
76541;BMP280;65385;55.772;37.658;2023-07-08T00:17:36;99612.06;;;20.11
76541;BMP280;65385;55.772;37.658;2023-07-08T00:18:37;99618.47;;;20.10
76541;BMP280;65385;55.772;37.658;2023-07-08T00:19:37;99616.91;;;20.09
76541;BMP280;65385;55.772;37.658;2023-07-08T00:20:44;99611.16;;;20.07
76541;BMP280;65385;55.772;37.658;2023-07-08T00:21:45;99617.47;;;20.02
76541;BMP280;65385;55.772;37.658;2023-07-08T00:22:46;99616.69;;;20.02
76541;BMP280;65385;55.772;37.658;2023-07-08T00:23:51;99614.81;;;20.02
76541;BMP280;65385;55.772;37.658;2023-07-08T00:24:53;99618.56;;;20.01
76541;BMP280;65385;55.772;37.658;2023-07-08T00:25:54;99623.09;;;20.00
76541;BMP280;65385;55.772;37.658;2023-07-08T00:26:54;99616.56;;;19.98
76541;BMP280;65385;55.772;37.658;2023-07-08T00:27:55;99617.63;;;19.97
76541;BMP280;65385;55.772;37.658;2023-07-08T00:28:56;99622.50;;;19.95
76541;BMP280;65385;55.772;37.658;2023-07-08T00:29:56;99627.50;;;19.96
76541;BMP280;65385;55.772;37.658;2023-07-08T00:30:58;99620.63;;;19.95
76541;BMP280;65385;55.772;37.658;2023-07-08T00:31:58;99625.16;;;19.95
76541;BMP280;65385;55.772;37.658;2023-07-08T00:33:00;99617.97;;;19.95
76541;BMP280;65385;55.772;37.658;2023-07-08T00:34:00;99609.88;;;19.92
76541;BMP280;65385;55.772;37.658;2023-07-08T00:35:04;99618.31;;;19.94
76541;BMP280;65385;55.772;37.658;2023-07-08T00:36:11;99619.06;;;19.94
76541;BMP280;65385;55.772;37.658;2023-07-08T00:37:13;99622.50;;;19.95
76541;BMP280;65385;55.772;37.658;2023-07-08T00:38:31;99620.19;;;19.93
76541;BMP280;65385;55.772;37.658;2023-07-08T00:39:34;99621.28;;;19.92
76541;BMP280;65385;55.772;37.658;2023-07-08T00:40:35;99617.84;;;19.92
76541;BMP280;65385;55.772;37.658;2023-07-08T00:41:39;99623.16;;;19.92
76541;BMP280;65385;55.772;37.658;2023-07-08T00:42:43;99630.66;;;19.90
76541;BMP280;65385;55.772;37.658;2023-07-08T00:43:50;99621.19;;;19.89
76541;BMP280;65385;55.772;37.658;2023-07-08T00:44:51;99627.59;;;19.88
76541;BMP280;65385;55.772;37.658;2023-07-08T00:46:03;99626.03;;;19.87
76541;BMP280;65385;55.772;37.658;2023-07-08T00:47:09;99626.03;;;19.87
76541;BMP280;65385;55.772;37.658;2023-07-08T00:48:25;99636.19;;;19.85
76541;BMP280;65385;55.772;37.658;2023-07-08T00:50:07;99633.06;;;19.83
76541;BMP280;65385;55.772;37.658;2023-07-08T00:51:09;99629.53;;;19.79
76541;BMP280;65385;55.772;37.658;2023-07-08T00:54:24;99644.69;;;19.78
76541;BMP280;65385;55.772;37.658;2023-07-08T00:55:24;99634.38;;;19.77
76541;BMP280;65385;55.772;37.658;2023-07-08T00:57:10;99633.63;;;19.76
76541;BMP280;65385;55.772;37.658;2023-07-08T00:57:51;99633.47;;;19.73
76541;BMP280;65385;55.772;37.658;2023-07-08T00:59:01;99644.22;;;19.76
76541;BMP280;65385;55.772;37.658;2023-07-08T01:00:05;99640.78;;;19.76
76541;BMP280;65385;55.772;37.658;2023-07-08T01:01:08;99632.38;;;19.74
76541;BMP280;65385;55.772;37.658;2023-07-08T01:02:11;99631.94;;;19.72
76541;BMP280;65385;55.772;37.658;2023-07-08T01:03:13;99627.72;;;19.71
76541;BMP280;65385;55.772;37.658;2023-07-08T01:05:20;99643.34;;;19.72
76541;BMP280;65385;55.772;37.658;2023-07-08T01:06:24;99645.22;;;19.72
76541;BMP280;65385;55.772;37.658;2023-07-08T01:07:32;99641.00;;;19.71
76541;BMP280;65385;55.772;37.658;2023-07-08T01:08:34;99641.78;;;19.71
76541;BMP280;65385;55.772;37.658;2023-07-08T01:09:41;99632.72;;;19.72
76541;BMP280;65385;55.772;37.658;2023-07-08T01:10:46;99636.78;;;19.70
76541;BMP280;65385;55.772;37.658;2023-07-08T01:11:49;99640.34;;;19.74
76541;BMP280;65385;55.772;37.658;2023-07-08T01:12:55;99641.13;;;19.74
76541;BMP280;65385;55.772;37.658;2023-07-08T01:13:57;99637.03;;;19.77
76541;BMP280;65385;55.772;37.658;2023-07-08T01:15:01;99632.66;;;19.81
76541;BMP280;65385;55.772;37.658;2023-07-08T01:16:02;99637.59;;;19.82
76541;BMP280;65385;55.772;37.658;2023-07-08T01:17:04;99641.97;;;19.87
76541;BMP280;65385;55.772;37.658;2023-07-08T01:18:05;99641.75;;;19.92
76541;BMP280;65385;55.772;37.658;2023-07-08T01:19:10;99634.34;;;19.97
76541;BMP280;65385;55.772;37.658;2023-07-08T01:20:12;99638.25;;;20.00
76541;BMP280;65385;55.772;37.658;2023-07-08T01:22:35;99642.25;;;20.06
76541;BMP280;65385;55.772;37.658;2023-07-08T01:23:37;99638.47;;;20.07
76541;BMP280;65385;55.772;37.658;2023-07-08T01:24:40;99640.50;;;20.10
76541;BMP280;65385;55.772;37.658;2023-07-08T01:25:42;99636.59;;;20.08
76541;BMP280;65385;55.772;37.658;2023-07-08T01:26:45;99633.41;;;20.02
76541;BMP280;65385;55.772;37.658;2023-07-08T01:27:52;99639.81;;;20.01
76541;BMP280;65385;55.772;37.658;2023-07-08T01:28:55;99634.81;;;19.99
76541;BMP280;65385;55.772;37.658;2023-07-08T01:29:55;99628.72;;;19.99
76541;BMP280;65385;55.772;37.658;2023-07-08T01:30:56;99643.44;;;19.96
76541;BMP280;65385;55.772;37.658;2023-07-08T01:31:57;99638.78;;;19.93
76541;BMP280;65385;55.772;37.658;2023-07-08T01:33:05;99638.00;;;19.93
76541;BMP280;65385;55.772;37.658;2023-07-08T01:34:10;99635.13;;;19.98
76541;BMP280;65385;55.772;37.658;2023-07-08T01:35:11;99631.19;;;20.04
76541;BMP280;65385;55.772;37.658;2023-07-08T01:36:14;99641.69;;;20.13
76541;BMP280;65385;55.772;37.658;2023-07-08T01:37:14;99631.22;;;20.16
76541;BMP280;65385;55.772;37.658;2023-07-08T01:38:18;99657.34;;;20.26
76541;BMP280;65385;55.772;37.658;2023-07-08T01:39:24;99644.06;;;20.26
76541;BMP280;65385;55.772;37.658;2023-07-08T01:40:26;99643.75;;;20.28
76541;BMP280;65385;55.772;37.658;2023-07-08T01:41:27;99647.16;;;20.28
76541;BMP280;65385;55.772;37.658;2023-07-08T01:42:28;99644.78;;;20.35
76541;BMP280;65385;55.772;37.658;2023-07-08T01:43:29;99649.53;;;20.42
76541;BMP280;65385;55.772;37.658;2023-07-08T01:44:33;99649.44;;;20.50
76541;BMP280;65385;55.772;37.658;2023-07-08T01:45:37;99644.03;;;20.59
76541;BMP280;65385;55.772;37.658;2023-07-08T01:46:38;99648.56;;;20.71
76541;BMP280;65385;55.772;37.658;2023-07-08T01:47:41;99649.25;;;20.80
76541;BMP280;65385;55.772;37.658;2023-07-08T01:48:47;99651.69;;;20.85
76541;BMP280;65385;55.772;37.658;2023-07-08T01:49:48;99639.94;;;20.86
76541;BMP280;65385;55.772;37.658;2023-07-08T01:51:01;99635.63;;;20.93
76541;BMP280;65385;55.772;37.658;2023-07-08T01:52:03;99630.09;;;20.98
76541;BMP280;65385;55.772;37.658;2023-07-08T01:53:09;99638.50;;;21.00
76541;BMP280;65385;55.772;37.658;2023-07-08T01:54:10;99635.41;;;20.98
76541;BMP280;65385;55.772;37.658;2023-07-08T01:55:12;99641.84;;;20.97
76541;BMP280;65385;55.772;37.658;2023-07-08T01:56:14;99639.25;;;21.01
76541;BMP280;65385;55.772;37.658;2023-07-08T01:57:15;99630.97;;;21.02
76541;BMP280;65385;55.772;37.658;2023-07-08T01:58:16;99627.28;;;21.07
76541;BMP280;65385;55.772;37.658;2023-07-08T01:59:17;99622.72;;;21.07
76541;BMP280;65385;55.772;37.658;2023-07-08T02:00:18;99623.50;;;21.08
76541;BMP280;65385;55.772;37.658;2023-07-08T02:01:18;99629.41;;;21.01
76541;BMP280;65385;55.772;37.658;2023-07-08T02:02:19;99632.38;;;21.00
76541;BMP280;65385;55.772;37.658;2023-07-08T02:03:21;99631.72;;;21.03
76541;BMP280;65385;55.772;37.658;2023-07-08T02:04:23;99637.59;;;21.08
76541;BMP280;65385;55.772;37.658;2023-07-08T02:05:24;99625.97;;;21.13
76541;BMP280;65385;55.772;37.658;2023-07-08T02:06:25;99633.47;;;21.11
76541;BMP280;65385;55.772;37.658;2023-07-08T02:07:25;99629.53;;;21.05
76541;BMP280;65385;55.772;37.658;2023-07-08T02:08:26;99624.00;;;20.98
76541;BMP280;65385;55.772;37.658;2023-07-08T02:09:27;99629.53;;;20.93
76541;BMP280;65385;55.772;37.658;2023-07-08T02:10:28;99636.16;;;20.87
76541;BMP280;65385;55.772;37.658;2023-07-08T02:11:29;99636.84;;;20.84
76541;BMP280;65385;55.772;37.658;2023-07-08T02:12:29;99638.16;;;20.78
76541;BMP280;65385;55.772;37.658;2023-07-08T02:13:30;99639.19;;;20.73
76541;BMP280;65385;55.772;37.658;2023-07-08T02:14:30;99637.53;;;20.69
76541;BMP280;65385;55.772;37.658;2023-07-08T02:15:32;99637.41;;;20.65
76541;BMP280;65385;55.772;37.658;2023-07-08T02:16:33;99635.84;;;20.64
76541;BMP280;65385;55.772;37.658;2023-07-08T02:17:34;99634.19;;;20.59
76541;BMP280;65385;55.772;37.658;2023-07-08T02:18:37;99633.28;;;20.55
76541;BMP280;65385;55.772;37.658;2023-07-08T02:19:38;99632.38;;;20.51
76541;BMP280;65385;55.772;37.658;2023-07-08T02:20:39;99632.38;;;20.51
76541;BMP280;65385;55.772;37.658;2023-07-08T02:21:39;99628.94;;;20.51
76541;BMP280;65385;55.772;37.658;2023-07-08T02:22:40;99632.38;;;20.51
76541;BMP280;65385;55.772;37.658;2023-07-08T02:23:41;99638.81;;;20.50
76541;BMP280;65385;55.772;37.658;2023-07-08T02:24:41;99630.84;;;20.50
76541;BMP280;65385;55.772;37.658;2023-07-08T02:25:50;99633.84;;;20.49
76541;BMP280;65385;55.772;37.658;2023-07-08T02:26:51;99636.84;;;20.47
76541;BMP280;65385;55.772;37.658;2023-07-08T02:27:52;99636.84;;;20.47
76541;BMP280;65385;55.772;37.658;2023-07-08T02:28:58;99627.59;;;20.45
76541;BMP280;65385;55.772;37.658;2023-07-08T02:29:58;99634.50;;;20.46
76541;BMP280;65385;55.772;37.658;2023-07-08T02:31:03;99627.72;;;20.48
76541;BMP280;65385;55.772;37.658;2023-07-08T02:32:04;99623.06;;;20.45
76541;BMP280;65385;55.772;37.658;2023-07-08T02:33:04;99634.38;;;20.42
76541;BMP280;65385;55.772;37.658;2023-07-08T02:34:05;99631.28;;;20.40
76541;BMP280;65385;55.772;37.658;2023-07-08T02:35:07;99631.91;;;20.37
76541;BMP280;65385;55.772;37.658;2023-07-08T02:36:08;99633.34;;;20.35
76541;BMP280;65385;55.772;37.658;2023-07-08T02:37:08;99623.03;;;20.33
76541;BMP280;65385;55.772;37.658;2023-07-08T02:38:09;99623.03;;;20.33
76541;BMP280;65385;55.772;37.658;2023-07-08T02:39:10;99628.34;;;20.33
76541;BMP280;65385;55.772;37.658;2023-07-08T02:40:11;99627.25;;;20.34
76541;BMP280;65385;55.772;37.658;2023-07-08T02:41:12;99623.50;;;20.35
76541;BMP280;65385;55.772;37.658;2023-07-08T02:42:13;99618.31;;;20.39
76541;BMP280;65385;55.772;37.658;2023-07-08T02:43:13;99627.84;;;20.40
76541;BMP280;65385;55.772;37.658;2023-07-08T02:44:14;99622.38;;;20.36
76541;BMP280;65385;55.772;37.658;2023-07-08T02:45:16;99630.03;;;20.38
76541;BMP280;65385;55.772;37.658;2023-07-08T02:46:17;99621.94;;;20.34
76541;BMP280;65385;55.772;37.658;2023-07-08T02:47:18;99634.13;;;20.35
76541;BMP280;65385;55.772;37.658;2023-07-08T02:48:19;99632.13;;;20.32
76541;BMP280;65385;55.772;37.658;2023-07-08T02:49:20;99637.88;;;20.34
76541;BMP280;65385;55.772;37.658;2023-07-08T02:50:20;99638.97;;;20.33
76541;BMP280;65385;55.772;37.658;2023-07-08T02:51:21;99638.56;;;20.31
76541;BMP280;65385;55.772;37.658;2023-07-08T02:52:22;99639.66;;;20.30
76541;BMP280;65385;55.772;37.658;2023-07-08T02:53:22;99640.31;;;20.27
76541;BMP280;65385;55.772;37.658;2023-07-08T02:54:23;99633.78;;;20.25
76541;BMP280;65385;55.772;37.658;2023-07-08T02:55:23;99643.63;;;20.24
76541;BMP280;65385;55.772;37.658;2023-07-08T02:56:24;99644.28;;;20.21
76541;BMP280;65385;55.772;37.658;2023-07-08T02:57:26;99650.28;;;20.18
76541;BMP280;65385;55.772;37.658;2023-07-08T02:58:27;99639.97;;;20.17
76541;BMP280;65385;55.772;37.658;2023-07-08T02:59:28;99634.50;;;20.13
76541;BMP280;65385;55.772;37.658;2023-07-08T03:00:29;99648.00;;;20.08
76541;BMP280;65385;55.772;37.658;2023-07-08T03:01:29;99626.31;;;20.06
76541;BMP280;65385;55.772;37.658;2023-07-08T03:02:31;99620.13;;;20.02
76541;BMP280;65385;55.772;37.658;2023-07-08T03:03:31;99625.88;;;20.04
76541;BMP280;65385;55.772;37.658;2023-07-08T03:04:32;99619.66;;;20.00
76541;BMP280;65385;55.772;37.658;2023-07-08T03:05:33;99625.75;;;20.00
76541;BMP280;65385;55.772;37.658;2023-07-08T03:06:34;99620.75;;;19.99
76541;BMP280;65385;55.772;37.658;2023-07-08T03:07:35;99616.34;;;20.03
76541;BMP280;65385;55.772;37.658;2023-07-08T03:08:36;99616.47;;;20.07
76541;BMP280;65385;55.772;37.658;2023-07-08T03:09:40;99615.03;;;20.09
76541;BMP280;65385;55.772;37.658;2023-07-08T03:10:40;99615.91;;;20.13
76541;BMP280;65385;55.772;37.658;2023-07-08T03:11:41;99601.06;;;20.12
76541;BMP280;65385;55.772;37.658;2023-07-08T03:12:43;99606.06;;;20.14
76541;BMP280;65385;55.772;37.658;2023-07-08T03:13:43;99596.44;;;20.09
76541;BMP280;65385;55.772;37.658;2023-07-08T03:14:44;99608.25;;;20.12
76541;BMP280;65385;55.772;37.658;2023-07-08T03:15:46;99591.44;;;20.08
76541;BMP280;65385;55.772;37.658;2023-07-08T03:16:46;99606.28;;;20.09
76541;BMP280;65385;55.772;37.658;2023-07-08T03:17:47;99601.44;;;20.11
76541;BMP280;65385;55.772;37.658;2023-07-08T03:18:47;99608.25;;;20.12
76541;BMP280;65385;55.772;37.658;2023-07-08T03:19:49;99607.63;;;20.15
76541;BMP280;65385;55.772;37.658;2023-07-08T03:20:50;99619.19;;;20.19
76541;BMP280;65385;55.772;37.658;2023-07-08T03:21:51;99612.72;;;20.20
76541;BMP280;65385;55.772;37.658;2023-07-08T03:22:52;99615.28;;;20.28
76541;BMP280;65385;55.772;37.658;2023-07-08T03:23:53;99620.50;;;20.37
76541;BMP280;65385;55.772;37.658;2023-07-08T03:24:54;99618.88;;;20.44
76541;BMP280;65385;55.772;37.658;2023-07-08T03:25:56;99623.31;;;20.52
76541;BMP280;65385;55.772;37.658;2023-07-08T03:26:58;99626.66;;;20.74
76541;BMP280;65385;55.772;37.658;2023-07-08T03:28:00;99626.63;;;21.10
76541;BMP280;65385;55.772;37.658;2023-07-08T03:29:01;99646.53;;;21.40
76541;BMP280;65385;55.772;37.658;2023-07-08T03:30:03;99647.81;;;21.58
76541;BMP280;65385;55.772;37.658;2023-07-08T03:31:10;99644.84;;;21.75
76541;BMP280;65385;55.772;37.658;2023-07-08T03:32:12;99638.84;;;21.78
76541;BMP280;65385;55.772;37.658;2023-07-08T03:33:13;99643.38;;;21.90
76541;BMP280;65385;55.772;37.658;2023-07-08T03:34:16;99639.00;;;21.98
76541;BMP280;65385;55.772;37.658;2023-07-08T03:35:17;99631.59;;;22.07
76541;BMP280;65385;55.772;37.658;2023-07-08T03:36:18;99640.19;;;22.16
76541;BMP280;65385;55.772;37.658;2023-07-08T03:37:25;99624.63;;;22.18
76541;BMP280;65385;55.772;37.658;2023-07-08T03:38:25;99633.75;;;22.17
76541;BMP280;65385;55.772;37.658;2023-07-08T03:39:26;99622.69;;;22.15
76541;BMP280;65385;55.772;37.658;2023-07-08T03:40:26;99623.03;;;22.13
76541;BMP280;65385;55.772;37.658;2023-07-08T03:41:27;99618.97;;;22.19
76541;BMP280;65385;55.772;37.658;2023-07-08T03:42:29;99620.59;;;22.24
76541;BMP280;65385;55.772;37.658;2023-07-08T03:43:29;99629.72;;;22.23
76541;BMP280;65385;55.772;37.658;2023-07-08T03:44:30;99613.78;;;22.11
76541;BMP280;65385;55.772;37.658;2023-07-08T03:45:31;99619.41;;;22.06
76541;BMP280;65385;55.772;37.658;2023-07-08T03:46:32;99619.41;;;22.06
76541;BMP280;65385;55.772;37.658;2023-07-08T03:47:32;99617.78;;;22.17
76541;BMP280;65385;55.772;37.658;2023-07-08T03:48:34;99613.88;;;22.30
76541;BMP280;65385;55.772;37.658;2023-07-08T03:49:35;99614.25;;;22.44
76541;BMP280;65385;55.772;37.658;2023-07-08T03:50:35;99607.34;;;22.59
76541;BMP280;65385;55.772;37.658;2023-07-08T03:51:38;99618.69;;;22.71
76541;BMP280;65385;55.772;37.658;2023-07-08T03:52:39;99598.91;;;22.72
76541;BMP280;65385;55.772;37.658;2023-07-08T03:53:39;99600.53;;;22.61
76541;BMP280;65385;55.772;37.658;2023-07-08T03:54:41;99604.50;;;22.51
76541;BMP280;65385;55.772;37.658;2023-07-08T03:55:41;99602.81;;;22.43
76541;BMP280;65385;55.772;37.658;2023-07-08T03:56:43;99608.91;;;22.44
76541;BMP280;65385;55.772;37.658;2023-07-08T03:57:44;99609.44;;;22.49
76541;BMP280;65385;55.772;37.658;2023-07-08T03:58:45;99604.88;;;22.50
76541;BMP280;65385;55.772;37.658;2023-07-08T03:59:47;99604.16;;;22.53
76541;BMP280;65385;55.772;37.658;2023-07-08T04:00:47;99604.88;;;22.50
76541;BMP280;65385;55.772;37.658;2023-07-08T04:01:48;99603.28;;;22.65
76541;BMP280;65385;55.772;37.658;2023-07-08T04:02:48;99596.34;;;22.95
76541;BMP280;65385;55.772;37.658;2023-07-08T04:03:57;99600.34;;;23.43
76541;BMP280;65385;55.772;37.658;2023-07-08T04:04:58;99608.44;;;23.88
76541;BMP280;65385;55.772;37.658;2023-07-08T04:05:58;99600.88;;;24.16
76541;BMP280;65385;55.772;37.658;2023-07-08T04:06:59;99599.66;;;24.36
76541;BMP280;65385;55.772;37.658;2023-07-08T04:08:00;99596.25;;;24.66
76541;BMP280;65385;55.772;37.658;2023-07-08T04:09:00;99594.59;;;24.84
76541;BMP280;65385;55.772;37.658;2023-07-08T04:10:01;99589.72;;;24.93
76541;BMP280;65385;55.772;37.658;2023-07-08T04:11:02;99600.84;;;24.95
76541;BMP280;65385;55.772;37.658;2023-07-08T04:12:03;99591.94;;;24.84
76541;BMP280;65385;55.772;37.658;2023-07-08T04:13:05;99597.03;;;24.66
76541;BMP280;65385;55.772;37.658;2023-07-08T04:14:06;99607.47;;;24.48
76541;BMP280;65385;55.772;37.658;2023-07-08T04:15:10;99614.44;;;24.27
76541;BMP280;65385;55.772;37.658;2023-07-08T04:16:17;99609.81;;;24.01
76541;BMP280;65385;55.772;37.658;2023-07-08T04:17:18;99604.81;;;23.77
76541;BMP280;65385;55.772;37.658;2023-07-08T04:18:19;99611.44;;;23.64
76541;BMP280;65385;55.772;37.658;2023-07-08T04:19:20;99609.63;;;23.49
76541;BMP280;65385;55.772;37.658;2023-07-08T04:20:23;99617.34;;;23.35
76541;BMP280;65385;55.772;37.658;2023-07-08T04:21:24;99619.75;;;23.21
76541;BMP280;65385;55.772;37.658;2023-07-08T04:22:26;99618.03;;;23.12
76541;BMP280;65385;55.772;37.658;2023-07-08T04:23:26;99622.91;;;23.07
76541;BMP280;65385;55.772;37.658;2023-07-08T04:24:28;99628.84;;;23.00
76541;BMP280;65385;55.772;37.658;2023-07-08T04:25:28;99636.03;;;22.96
76541;BMP280;65385;55.772;37.658;2023-07-08T04:26:29;99628.63;;;22.90
76541;BMP280;65385;55.772;37.658;2023-07-08T04:27:29;99644.16;;;22.84
76541;BMP280;65385;55.772;37.658;2023-07-08T04:28:30;99634.16;;;22.81
76541;BMP280;65385;55.772;37.658;2023-07-08T04:29:30;99633.97;;;22.74
76541;BMP280;65385;55.772;37.658;2023-07-08T04:30:31;99633.44;;;22.65
76541;BMP280;65385;55.772;37.658;2023-07-08T04:31:32;99627.47;;;22.56
76541;BMP280;65385;55.772;37.658;2023-07-08T04:32:32;99631.53;;;22.50
76541;BMP280;65385;55.772;37.658;2023-07-08T04:33:33;99635.56;;;22.44
76541;BMP280;65385;55.772;37.658;2023-07-08T04:34:34;99635.75;;;22.35
76541;BMP280;65385;55.772;37.658;2023-07-08T04:35:35;99619.22;;;22.30
76541;BMP280;65385;55.772;37.658;2023-07-08T04:36:37;99626.19;;;22.19
76541;BMP280;65385;55.772;37.658;2023-07-08T04:37:37;99627.47;;;22.09
76541;BMP280;65385;55.772;37.658;2023-07-08T04:38:38;99624.28;;;22.04
76541;BMP280;65385;55.772;37.658;2023-07-08T04:39:41;99618.31;;;21.95
76541;BMP280;65385;55.772;37.658;2023-07-08T04:40:42;99621.75;;;21.95
76541;BMP280;65385;55.772;37.658;2023-07-08T04:41:42;99620.59;;;21.93
76541;BMP280;65385;55.772;37.658;2023-07-08T04:42:44;99625.03;;;21.88
76541;BMP280;65385;55.772;37.658;2023-07-08T04:43:47;99610.50;;;21.86
76541;BMP280;65385;55.772;37.658;2023-07-08T04:44:49;99631.13;;;21.89
76541;BMP280;65385;55.772;37.658;2023-07-08T04:45:51;99633.53;;;21.94
76541;BMP280;65385;55.772;37.658;2023-07-08T04:46:54;99642.75;;;21.97
76541;BMP280;65385;55.772;37.658;2023-07-08T04:47:55;99641.97;;;21.96
76541;BMP280;65385;55.772;37.658;2023-07-08T04:48:56;99652.75;;;22.00
76541;BMP280;65385;55.772;37.658;2023-07-08T04:50:00;99662.69;;;22.03
76541;BMP280;65385;55.772;37.658;2023-07-08T04:51:01;99654.38;;;22.04
76541;BMP280;65385;55.772;37.658;2023-07-08T04:52:02;99662.69;;;22.03
76541;BMP280;65385;55.772;37.658;2023-07-08T04:53:03;99660.81;;;22.03
76541;BMP280;65385;55.772;37.658;2023-07-08T04:54:04;99661.41;;;21.97
76541;BMP280;65385;55.772;37.658;2023-07-08T04:55:05;99667.22;;;21.86
76541;BMP280;65385;55.772;37.658;2023-07-08T04:56:07;99661.38;;;21.81
76541;BMP280;65385;55.772;37.658;2023-07-08T04:57:08;99659.03;;;21.79
76541;BMP280;65385;55.772;37.658;2023-07-08T04:58:08;99661.19;;;21.74
76541;BMP280;65385;55.772;37.658;2023-07-08T04:59:12;99664.41;;;21.67
76541;BMP280;65385;55.772;37.658;2023-07-08T05:00:16;99650.13;;;21.60
76541;BMP280;65385;55.772;37.658;2023-07-08T05:01:17;99656.03;;;21.53
76541;BMP280;65385;55.772;37.658;2023-07-08T05:02:18;99649.72;;;21.46
76541;BMP280;65385;55.772;37.658;2023-07-08T05:03:20;99642.75;;;21.41
76541;BMP280;65385;55.772;37.658;2023-07-08T05:04:22;99643.19;;;21.31
76541;BMP280;65385;55.772;37.658;2023-07-08T05:05:23;99640.81;;;21.26
76541;BMP280;65385;55.772;37.658;2023-07-08T05:06:23;99639.47;;;21.20
76541;BMP280;65385;55.772;37.658;2023-07-08T05:07:24;99639.69;;;21.15
76541;BMP280;65385;55.772;37.658;2023-07-08T05:08:24;99629.94;;;21.07
76541;BMP280;65385;55.772;37.658;2023-07-08T05:09:25;99638.59;;;21.04
76541;BMP280;65385;55.772;37.658;2023-07-08T05:10:26;99642.94;;;20.96
76541;BMP280;65385;55.772;37.658;2023-07-08T05:11:28;99642.81;;;20.93
76541;BMP280;65385;55.772;37.658;2023-07-08T05:12:29;99635.84;;;20.88
76541;BMP280;65385;55.772;37.658;2023-07-08T05:13:29;99647.28;;;20.89
76541;BMP280;65385;55.772;37.658;2023-07-08T05:14:30;99643.69;;;20.85
76541;BMP280;65385;55.772;37.658;2023-07-08T05:15:31;99651.69;;;20.85
76541;BMP280;65385;55.772;37.658;2023-07-08T05:16:33;99656.91;;;20.81
76541;BMP280;65385;55.772;37.658;2023-07-08T05:17:34;99664.91;;;20.81
76541;BMP280;65385;55.772;37.658;2023-07-08T05:18:35;99659.88;;;20.80
76541;BMP280;65385;55.772;37.658;2023-07-08T05:19:36;99670.09;;;20.78
76541;BMP280;65385;55.772;37.658;2023-07-08T05:20:36;99668.09;;;20.75
76541;BMP280;65385;55.772;37.658;2023-07-08T05:21:37;99668.56;;;20.77
76541;BMP280;65385;55.772;37.658;2023-07-08T05:22:39;99655.91;;;20.74
76541;BMP280;65385;55.772;37.658;2023-07-08T05:23:40;99662.31;;;20.73
76541;BMP280;65385;55.772;37.658;2023-07-08T05:24:40;99663.34;;;20.68
76541;BMP280;65385;55.772;37.658;2023-07-08T05:25:41;99664.13;;;20.69
76541;BMP280;65385;55.772;37.658;2023-07-08T05:26:42;99662.56;;;20.68
76541;BMP280;65385;55.772;37.658;2023-07-08T05:27:42;99673.19;;;20.68
76541;BMP280;65385;55.772;37.658;2023-07-08T05:28:43;99673.66;;;20.70
76541;BMP280;65385;55.772;37.658;2023-07-08T05:29:46;99678.19;;;20.69
76541;BMP280;65385;55.772;37.658;2023-07-08T05:30:46;99677.03;;;20.70
76541;BMP280;65385;55.772;37.658;2023-07-08T05:31:47;99672.50;;;20.71
76541;BMP280;65385;55.772;37.658;2023-07-08T05:32:47;99670.63;;;20.71
76541;BMP280;65385;55.772;37.658;2023-07-08T05:33:48;99664.44;;;20.67
76541;BMP280;65385;55.772;37.658;2023-07-08T05:34:49;99672.28;;;20.63
76541;BMP280;65385;55.772;37.658;2023-07-08T05:35:50;99668.53;;;20.65
76541;BMP280;65385;55.772;37.658;2023-07-08T05:36:51;99668.44;;;20.61
76541;BMP280;65385;55.772;37.658;2023-07-08T05:37:52;99670.19;;;20.57
76541;BMP280;65385;55.772;37.658;2023-07-08T05:38:52;99672.06;;;20.56
76541;BMP280;65385;55.772;37.658;2023-07-08T05:39:53;99676.50;;;20.52
76541;BMP280;65385;55.772;37.658;2023-07-08T05:40:55;99677.13;;;20.49
76541;BMP280;65385;55.772;37.658;2023-07-08T05:41:56;99674.81;;;20.48
76541;BMP280;65385;55.772;37.658;2023-07-08T05:42:57;99667.03;;;20.43
76541;BMP280;65385;55.772;37.658;2023-07-08T05:43:57;99657.88;;;20.40
76541;BMP280;65385;55.772;37.658;2023-07-08T05:44:58;99664.28;;;20.39
76541;BMP280;65385;55.772;37.658;2023-07-08T05:46:00;99655.53;;;20.39
76541;BMP280;65385;55.772;37.658;2023-07-08T05:47:03;99647.66;;;20.42
76541;BMP280;65385;55.772;37.658;2023-07-08T05:48:04;99646.56;;;20.43
76541;BMP280;65385;55.772;37.658;2023-07-08T05:49:04;99648.88;;;20.45
76541;BMP280;65385;55.772;37.658;2023-07-08T05:50:05;99651.66;;;20.48
76541;BMP280;65385;55.772;37.658;2023-07-08T05:51:06;99656.75;;;20.53
76541;BMP280;65385;55.772;37.658;2023-07-08T05:52:07;99662.66;;;20.59
76541;BMP280;65385;55.772;37.658;2023-07-08T05:53:11;99662.72;;;20.62
76541;BMP280;65385;55.772;37.658;2023-07-08T05:54:12;99659.31;;;20.62
76541;BMP280;65385;55.772;37.658;2023-07-08T05:55:13;99664.53;;;20.71
76541;BMP280;65385;55.772;37.658;2023-07-08T05:56:14;99653.69;;;20.76